createdAt,value
2023-05-07T00:02:27.506Z,12.67
2023-05-07T00:05:01.822Z,12.20
2023-05-07T00:07:34.783Z,13.20
2023-05-07T00:10:08.594Z,13.30
2023-05-07T00:12:42.500Z,12.67
2023-05-07T00:15:18.001Z,12.00
2023-05-07T00:17:51.021Z,12.10
2023-05-07T00:20:25.427Z,13.30
2023-05-07T00:22:59.576Z,14.60
2023-05-07T00:25:34.032Z,12.63
2023-05-07T00:28:08.859Z,12.50
2023-05-07T00:30:41.955Z,11.50
2023-05-07T00:33:14.670Z,12.20
2023-05-07T00:35:48.867Z,12.87
2023-05-07T00:38:21.690Z,12.13
2023-05-07T00:40:54.484Z,12.10
2023-05-07T00:43:28.511Z,12.33
2023-05-07T00:46:01.597Z,12.40
2023-05-07T00:48:34.588Z,11.30
2023-05-07T00:51:08.900Z,12.17
2023-05-07T00:53:41.715Z,12.13
2023-05-07T00:56:17.513Z,12.40
2023-05-07T00:58:50.433Z,12.10
2023-05-07T01:01:23.599Z,13.30
2023-05-07T01:03:56.637Z,12.80
2023-05-07T01:06:31.894Z,12.07
2023-05-07T01:09:08.030Z,12.60
2023-05-07T01:11:41.322Z,12.47
2023-05-07T01:14:14.111Z,12.60
2023-05-07T01:16:47.311Z,12.63
2023-05-07T01:19:20.435Z,12.80
2023-05-07T01:22:01.421Z,12.37
2023-05-07T01:24:35.951Z,12.83
2023-05-07T01:27:08.893Z,11.50
2023-05-07T01:29:41.912Z,11.70
2023-05-07T01:32:15.817Z,12.93
2023-05-07T01:34:50.042Z,11.83
2023-05-07T01:37:24.167Z,12.90
2023-05-07T01:39:58.660Z,12.20
2023-05-07T01:42:31.751Z,12.03
2023-05-07T01:45:05.583Z,12.23
2023-05-07T01:47:38.569Z,11.27
2023-05-07T01:50:12.361Z,12.30
2023-05-07T01:52:45.602Z,11.83
2023-05-07T01:55:20.251Z,11.60
2023-05-07T01:57:58.561Z,11.73
2023-05-07T02:00:31.264Z,11.93
2023-05-07T02:03:06.643Z,11.60
2023-05-07T02:05:39.657Z,12.93
2023-05-07T02:08:14.806Z,12.27
2023-05-07T02:10:49.136Z,11.50
2023-05-07T02:13:23.401Z,11.17
2023-05-07T02:15:56.430Z,11.97
2023-05-07T02:18:29.760Z,11.97
2023-05-07T02:21:02.603Z,11.40
2023-05-07T02:23:37.262Z,11.93
2023-05-07T02:26:13.963Z,11.43
2023-05-07T02:28:46.717Z,12.57
2023-05-07T02:31:19.498Z,11.60
2023-05-07T02:33:52.398Z,11.83
2023-05-07T02:36:25.310Z,11.43
2023-05-07T02:38:58.611Z,11.60
2023-05-07T02:41:32.998Z,12.00
2023-05-07T02:44:09.089Z,11.70
2023-05-07T02:46:44.323Z,11.73
2023-05-07T02:49:17.186Z,11.60
2023-05-07T02:51:50.169Z,11.40
2023-05-07T02:54:22.887Z,10.87
2023-05-07T02:56:57.341Z,10.93
2023-05-07T02:59:30.139Z,11.10
2023-05-07T03:02:03.191Z,11.40
2023-05-07T03:04:36.108Z,10.60
2023-05-07T03:07:09.033Z,10.10
2023-05-07T03:09:42.001Z,10.73
2023-05-07T03:12:16.724Z,9.93
2023-05-07T03:14:49.629Z,9.80
2023-05-07T03:17:22.528Z,10.97
2023-05-07T03:19:55.792Z,10.20
2023-05-07T03:22:28.563Z,9.93
2023-05-07T03:25:01.403Z,9.63
2023-05-07T03:27:35.547Z,9.63
2023-05-07T03:30:09.809Z,10.00
2023-05-07T03:32:42.683Z,9.97
2023-05-07T03:35:15.584Z,10.27
2023-05-07T03:37:48.449Z,10.33
2023-05-07T03:40:21.530Z,9.93
2023-05-07T03:42:58.289Z,9.73
2023-05-07T03:45:31.526Z,10.37
2023-05-07T03:48:04.757Z,9.33
2023-05-07T03:50:39.131Z,8.93
2023-05-07T03:53:12.059Z,10.07
2023-05-07T03:55:44.876Z,9.43
2023-05-07T03:58:18.985Z,10.13
2023-05-07T04:00:51.879Z,9.20
2023-05-07T04:03:24.826Z,8.93
2023-05-07T04:06:00.466Z,9.40
2023-05-07T04:08:33.348Z,9.27
2023-05-07T04:11:06.168Z,9.07
2023-05-07T04:13:40.290Z,9.40
2023-05-07T04:16:13.242Z,10.13
2023-05-07T04:18:46.043Z,9.93
2023-05-07T04:21:18.938Z,9.63
2023-05-07T04:24:12.235Z,9.77
2023-05-07T04:26:48.197Z,9.03
2023-05-07T04:29:30.242Z,9.03
2023-05-07T04:32:03.186Z,9.23
2023-05-07T04:34:36.098Z,8.90
2023-05-07T04:37:09.069Z,8.70
2023-05-07T04:39:41.945Z,8.80
2023-05-07T04:42:16.801Z,8.60
2023-05-07T04:44:54.571Z,8.50
2023-05-07T04:47:27.669Z,8.30
2023-05-07T04:50:00.496Z,8.23
2023-05-07T04:52:33.353Z,8.80
2023-05-07T04:55:06.617Z,8.90
2023-05-07T04:57:40.520Z,8.40
2023-05-07T05:00:15.692Z,7.80
2023-05-07T05:02:48.531Z,8.13
2023-05-07T05:05:24.697Z,8.60
2023-05-07T05:07:57.529Z,8.30
2023-05-07T05:10:30.381Z,8.10
2023-05-07T05:13:03.097Z,7.63
2023-05-07T05:15:37.412Z,7.63
2023-05-07T05:18:10.314Z,7.10
2023-05-07T05:20:45.949Z,7.27
2023-05-07T05:23:18.758Z,7.30
2023-05-07T05:25:51.754Z,7.50
2023-05-07T05:28:24.550Z,8.37
2023-05-07T05:30:58.786Z,7.40
2023-05-07T05:33:31.488Z,7.13
2023-05-07T05:36:04.272Z,7.87
2023-05-07T05:38:37.075Z,8.20
2023-05-07T05:41:10.030Z,7.73
2023-05-07T05:43:45.814Z,8.07
2023-05-07T05:46:20.557Z,8.07
2023-05-07T05:48:53.471Z,7.43
2023-05-07T05:51:26.246Z,7.13
2023-05-07T05:53:58.905Z,8.10
2023-05-07T05:56:31.671Z,8.13
2023-05-07T05:59:04.744Z,7.73
2023-05-07T06:01:39.062Z,8.00
2023-05-07T06:04:13.078Z,8.00
2023-05-07T06:06:45.843Z,7.50
2023-05-07T06:09:18.655Z,8.53
2023-05-07T06:11:51.553Z,7.67
2023-05-07T06:14:24.317Z,8.73
2023-05-07T06:16:58.705Z,8.00
2023-05-07T06:19:31.978Z,7.67
2023-05-07T06:22:04.899Z,7.67
2023-05-07T06:24:39.826Z,7.37
2023-05-07T06:27:12.569Z,8.33
2023-05-07T06:29:45.383Z,8.43
2023-05-07T06:32:20.538Z,8.30
2023-05-07T06:34:53.396Z,8.40
2023-05-07T06:37:26.088Z,7.47
2023-05-07T06:40:00.236Z,7.40
2023-05-07T06:42:33.810Z,7.30
2023-05-07T06:45:07.122Z,7.30
2023-05-07T06:47:41.367Z,7.27
2023-05-07T06:50:14.463Z,6.60
2023-05-07T06:52:47.520Z,7.53
2023-05-07T06:55:20.350Z,7.50
2023-05-07T06:57:55.130Z,7.63
2023-05-07T07:00:31.650Z,7.07
2023-05-07T07:03:06.011Z,7.03
2023-05-07T07:05:38.915Z,7.23
2023-05-07T07:08:12.022Z,6.57
2023-05-07T07:10:44.911Z,7.07
2023-05-07T07:13:17.726Z,7.07
2023-05-07T07:15:50.707Z,6.83
2023-05-07T07:18:24.863Z,6.50
2023-05-07T07:20:57.764Z,6.10
2023-05-07T07:23:30.647Z,6.40
2023-05-07T07:26:03.627Z,5.60
2023-05-07T07:28:38.663Z,5.43
2023-05-07T07:31:13.848Z,5.77
2023-05-07T07:33:48.161Z,5.60
2023-05-07T07:36:22.040Z,5.50
2023-05-07T07:38:56.655Z,5.53
2023-05-07T07:41:29.526Z,5.37
2023-05-07T07:44:04.650Z,5.20
2023-05-07T07:46:37.444Z,5.40
2023-05-07T07:49:11.789Z,5.10
2023-05-07T07:51:44.855Z,4.90
2023-05-07T07:54:17.821Z,4.83
2023-05-07T07:56:50.441Z,5.40
2023-05-07T07:59:23.124Z,4.70
2023-05-07T08:01:57.878Z,4.40
2023-05-07T08:04:34.196Z,4.30
2023-05-07T08:07:07.114Z,3.93
2023-05-07T08:09:42.537Z,4.10
2023-05-07T08:12:17.961Z,3.73
2023-05-07T08:14:50.939Z,3.73
2023-05-07T08:17:24.114Z,4.17
2023-05-07T08:19:58.563Z,4.77
2023-05-07T08:22:31.475Z,3.97
2023-05-07T08:25:04.557Z,4.03
2023-05-07T08:27:40.590Z,4.00
2023-05-07T08:30:14.494Z,4.00
2023-05-07T08:32:47.497Z,3.60
2023-05-07T08:35:22.099Z,3.80
2023-05-07T08:37:55.140Z,3.70
2023-05-07T08:40:28.298Z,3.60
2023-05-07T08:43:02.441Z,3.67
2023-05-07T08:45:36.139Z,3.17
2023-05-07T08:48:11.239Z,3.90
2023-05-07T08:50:47.101Z,3.10
2023-05-07T08:53:20.201Z,3.60
2023-05-07T08:55:53.384Z,3.80
2023-05-07T08:58:26.298Z,3.70
2023-05-07T09:00:59.314Z,3.37
2023-05-07T09:03:32.722Z,3.63
2023-05-07T09:06:07.107Z,3.77
2023-05-07T09:08:40.055Z,3.43
2023-05-07T09:11:13.910Z,3.40
2023-05-07T09:13:46.845Z,4.00
2023-05-07T09:16:19.596Z,3.40
2023-05-07T09:18:54.429Z,3.37
2023-05-07T09:21:28.902Z,3.23
2023-05-07T09:24:02.087Z,3.40
2023-05-07T09:26:35.745Z,3.90
2023-05-07T09:29:09.451Z,3.63
2023-05-07T09:31:44.163Z,3.17
2023-05-07T09:34:17.010Z,3.20
2023-05-07T09:36:51.576Z,3.60
2023-05-07T09:39:27.865Z,3.13
2023-05-07T09:42:02.286Z,3.20
2023-05-07T09:44:35.854Z,2.97
2023-05-07T09:47:09.422Z,3.20
2023-05-07T09:49:49.021Z,2.90
2023-05-07T09:52:23.598Z,3.40
2023-05-07T09:55:00.285Z,3.50
2023-05-07T09:57:34.725Z,3.53
2023-05-07T10:00:09.663Z,3.07
2023-05-07T10:02:47.318Z,2.67
2023-05-07T10:05:21.054Z,2.43
2023-05-07T10:07:56.395Z,2.90
2023-05-07T10:10:29.812Z,3.10
2023-05-07T10:13:03.322Z,3.10
2023-05-07T10:15:36.723Z,3.17
2023-05-07T10:18:10.411Z,2.57
2023-05-07T10:20:45.248Z,2.40
2023-05-07T10:23:21.702Z,2.70
2023-05-07T10:26:00.811Z,2.73
2023-05-07T10:28:36.336Z,2.63
2023-05-07T10:31:12.800Z,2.50
2023-05-07T10:33:49.484Z,2.80
2023-05-07T10:36:23.785Z,2.73
2023-05-07T10:38:58.847Z,2.40
2023-05-07T10:41:32.268Z,2.43
2023-05-07T10:44:05.560Z,2.43
2023-05-07T10:46:38.632Z,2.70
2023-05-07T10:49:13.365Z,2.37
2023-05-07T10:51:49.459Z,2.80
2023-05-07T10:54:24.884Z,2.80
2023-05-07T10:56:57.849Z,2.53
2023-05-07T10:59:35.054Z,2.80
2023-05-07T11:02:09.190Z,2.80
2023-05-07T11:04:43.017Z,3.10
2023-05-07T11:07:33.850Z,3.70
2023-05-07T11:10:13.781Z,2.60
2023-05-07T11:12:50.463Z,3.00
2023-05-07T11:15:44.341Z,2.53
2023-05-07T11:18:18.260Z,2.63
2023-05-07T11:20:52.573Z,2.60
2023-05-07T11:23:44.042Z,2.57
2023-05-07T11:26:18.404Z,2.83
2023-05-07T11:28:51.492Z,2.57
2023-05-07T11:31:25.602Z,3.00
2023-05-07T11:33:59.546Z,3.17
2023-05-07T11:36:33.206Z,2.47
2023-05-07T11:39:06.479Z,2.50
2023-05-07T11:41:43.900Z,2.67
2023-05-07T11:44:16.799Z,3.00
2023-05-07T11:46:50.426Z,2.47
2023-05-07T11:49:26.882Z,2.80
2023-05-07T11:51:59.737Z,2.60
2023-05-07T11:54:39.793Z,2.70
2023-05-07T11:57:17.939Z,2.90
2023-05-07T11:59:54.573Z,2.40
2023-05-07T12:02:27.928Z,2.33
2023-05-07T12:05:03.438Z,2.80
2023-05-07T12:07:37.346Z,2.50
2023-05-07T12:10:11.071Z,2.43
2023-05-07T12:12:47.903Z,3.23
2023-05-07T12:15:24.469Z,2.33
2023-05-07T12:17:59.541Z,2.80
2023-05-07T12:20:32.443Z,2.17
2023-05-07T12:23:05.799Z,2.20
2023-05-07T12:25:38.974Z,2.50
2023-05-07T12:28:14.803Z,2.83
2023-05-07T12:30:48.547Z,2.60
2023-05-07T12:33:22.667Z,2.77
2023-05-07T12:35:56.179Z,3.17
2023-05-07T12:38:38.096Z,2.73
2023-05-07T12:41:14.394Z,2.70
2023-05-07T12:43:48.651Z,2.80
2023-05-07T12:46:21.581Z,2.40
2023-05-07T12:48:54.657Z,2.57
2023-05-07T12:51:30.099Z,2.37
2023-05-07T12:54:03.559Z,2.60
2023-05-07T12:56:37.737Z,3.10
2023-05-07T12:59:12.800Z,2.87
2023-05-07T13:01:47.618Z,2.30
2023-05-07T13:04:22.203Z,2.13
2023-05-07T13:06:55.145Z,2.57
2023-05-07T13:09:29.736Z,2.47
2023-05-07T13:12:05.800Z,2.00
2023-05-07T13:14:40.130Z,2.10
2023-05-07T13:17:15.074Z,2.50
2023-05-07T13:19:48.007Z,2.37
2023-05-07T13:22:20.880Z,2.80
2023-05-07T13:24:53.897Z,3.20
2023-05-07T13:27:27.192Z,2.30
2023-05-07T13:30:01.732Z,2.20
2023-05-07T13:32:34.868Z,2.23
2023-05-07T13:35:08.560Z,2.57
2023-05-07T13:37:41.789Z,2.67
2023-05-07T13:40:16.758Z,2.37
2023-05-07T13:42:49.868Z,2.60
2023-05-07T13:48:00.680Z,2.03
2023-05-07T13:50:33.533Z,2.50
2023-05-07T13:53:06.586Z,2.90
2023-05-07T13:55:39.481Z,2.67
2023-05-07T13:58:12.397Z,1.90
2023-05-07T14:00:49.303Z,2.17
2023-05-07T14:03:22.664Z,2.10
2023-05-07T14:05:56.567Z,2.33
2023-05-07T14:08:31.802Z,2.80
2023-05-07T14:11:04.730Z,2.40
2023-05-07T14:13:37.723Z,2.77
2023-05-07T14:16:12.343Z,2.40
2023-05-07T14:18:45.444Z,2.57
2023-05-07T14:21:18.171Z,2.70
2023-05-07T14:23:52.277Z,2.27
2023-05-07T14:26:25.141Z,2.27
2023-05-07T14:28:59.327Z,2.30
2023-05-07T14:31:34.329Z,2.60
2023-05-07T14:34:07.509Z,2.73
2023-05-07T14:36:40.615Z,2.50
2023-05-07T14:39:14.876Z,2.20
2023-05-07T14:41:47.850Z,2.10
2023-05-07T14:44:20.652Z,2.60
2023-05-07T14:46:54.869Z,3.90
2023-05-07T14:49:27.714Z,2.57
2023-05-07T14:52:01.597Z,2.17
2023-05-07T14:54:38.299Z,2.03
2023-05-07T14:57:14.256Z,2.30
2023-05-07T14:59:47.962Z,1.97
2023-05-07T15:02:24.827Z,2.10
2023-05-07T15:04:57.688Z,2.43
2023-05-07T15:07:30.525Z,2.17
2023-05-07T15:10:03.476Z,2.20
2023-05-07T15:12:36.382Z,1.90
2023-05-07T15:15:10.390Z,2.20
2023-05-07T15:17:44.662Z,2.23
2023-05-07T15:20:18.495Z,1.90
2023-05-07T15:22:51.443Z,1.90
2023-05-07T15:25:24.587Z,2.17
2023-05-07T15:27:57.524Z,2.40
2023-05-07T15:30:30.450Z,1.90
2023-05-07T15:33:04.713Z,2.10
2023-05-07T15:35:40.565Z,1.73
2023-05-07T15:38:14.021Z,3.30
2023-05-07T15:40:46.838Z,2.50
2023-05-07T15:43:19.533Z,1.60
2023-05-07T15:45:52.717Z,2.10
2023-05-07T15:48:27.574Z,1.87
2023-05-07T15:51:00.691Z,1.77
2023-05-07T15:53:33.584Z,1.80
2023-05-07T15:56:08.162Z,2.70
2023-05-07T15:58:41.146Z,2.23
2023-05-07T16:01:13.930Z,2.13
2023-05-07T16:03:48.305Z,2.00
2023-05-07T16:06:21.836Z,2.37
2023-05-07T16:08:54.561Z,2.67
2023-05-07T16:11:30.306Z,1.97
2023-05-07T16:14:04.655Z,1.80
2023-05-07T16:16:38.171Z,2.13
2023-05-07T16:19:12.508Z,2.10
2023-05-07T16:21:45.808Z,2.40
2023-05-07T16:24:18.661Z,2.00
2023-05-07T16:26:55.896Z,1.87
2023-05-07T16:29:28.699Z,2.03
2023-05-07T16:32:01.589Z,2.40
2023-05-07T16:34:35.861Z,2.20
2023-05-07T16:37:08.847Z,2.47
2023-05-07T16:39:47.462Z,2.17
2023-05-07T16:42:20.267Z,2.30
2023-05-07T16:44:52.979Z,2.10
2023-05-07T16:47:26.086Z,2.53
2023-05-07T16:50:06.105Z,2.60
2023-05-07T16:52:38.981Z,2.10
2023-05-07T16:55:12.124Z,2.40
2023-05-07T16:57:48.093Z,2.47
2023-05-07T17:00:21.038Z,2.10
2023-05-07T17:02:54.122Z,2.73
2023-05-07T17:05:31.023Z,2.30
2023-05-07T17:08:03.913Z,2.80
2023-05-07T17:10:39.258Z,2.93
2023-05-07T17:13:12.168Z,2.70
2023-05-07T17:15:46.431Z,2.53
2023-05-07T17:18:19.362Z,2.13
2023-05-07T17:20:53.539Z,2.00
2023-05-07T17:23:29.230Z,2.23
2023-05-07T17:26:01.956Z,2.47
2023-05-07T17:28:34.866Z,2.20
2023-05-07T17:31:07.960Z,2.30
2023-05-07T17:33:41.004Z,2.03
2023-05-07T17:36:15.033Z,2.13
2023-05-07T17:38:47.947Z,2.10
2023-05-07T17:41:22.565Z,2.33
2023-05-07T17:43:58.390Z,2.17
2023-05-07T17:46:32.534Z,1.90
2023-05-07T17:49:05.381Z,1.93
2023-05-07T17:51:52.695Z,1.97
2023-05-07T17:54:27.927Z,2.00
2023-05-07T17:57:00.886Z,2.33
2023-05-07T17:59:33.969Z,2.47
2023-05-07T18:02:06.802Z,1.90
2023-05-07T18:04:39.472Z,2.20
2023-05-07T18:07:13.607Z,2.10
2023-05-07T18:09:46.383Z,2.40
2023-05-07T18:12:19.087Z,1.90
2023-05-07T18:14:57.178Z,2.00
2023-05-07T18:17:29.888Z,1.90
2023-05-07T18:20:02.732Z,2.13
2023-05-07T18:22:37.028Z,1.83
2023-05-07T18:25:10.043Z,1.97
2023-05-07T18:27:43.047Z,2.00
2023-05-07T18:30:16.051Z,2.10
2023-05-07T18:32:48.846Z,2.47
2023-05-07T18:35:24.648Z,2.13
2023-05-07T18:37:58.855Z,2.17
2023-05-07T18:40:31.787Z,2.30
2023-05-07T18:43:07.889Z,2.50
2023-05-07T18:45:40.769Z,2.30
2023-05-07T18:48:13.578Z,2.10
2023-05-07T18:50:50.220Z,2.10
2023-05-07T18:53:24.491Z,2.30
2023-05-07T18:55:57.324Z,2.60
2023-05-07T18:58:31.924Z,2.30
2023-05-07T19:01:07.953Z,2.20
2023-05-07T19:03:41.022Z,2.70
2023-05-07T19:06:14.186Z,2.43
2023-05-07T19:08:48.441Z,2.10
2023-05-07T19:11:21.758Z,1.90
2023-05-07T19:13:54.615Z,2.20
2023-05-07T19:16:27.732Z,2.23
2023-05-07T19:19:00.584Z,2.33
2023-05-07T19:21:33.670Z,2.47
2023-05-07T19:24:08.762Z,2.37
2023-05-07T19:26:41.608Z,2.10
2023-05-07T19:29:18.394Z,2.00
2023-05-07T19:31:51.649Z,2.20
2023-05-07T19:34:24.967Z,2.53
2023-05-07T19:36:57.660Z,2.57
2023-05-07T19:39:31.975Z,2.13
2023-05-07T19:42:04.983Z,2.70
2023-05-07T19:44:37.805Z,2.50
2023-05-07T19:47:11.178Z,2.30
2023-05-07T19:49:43.883Z,2.27
2023-05-07T19:52:16.849Z,2.50
2023-05-07T19:54:51.146Z,2.23
2023-05-07T19:57:24.124Z,2.40
2023-05-07T19:59:56.923Z,2.23
2023-05-07T20:02:29.777Z,2.30
2023-05-07T20:05:04.901Z,2.37
2023-05-07T20:07:37.656Z,2.73
2023-05-07T20:10:12.191Z,2.60
2023-05-07T20:12:47.867Z,2.33
2023-05-07T20:15:21.460Z,2.80
2023-05-07T20:17:54.331Z,2.60
2023-05-07T20:20:27.315Z,3.27
2023-05-07T20:23:00.106Z,2.73
2023-05-07T20:25:34.878Z,2.83
2023-05-07T20:28:07.765Z,3.20
2023-05-07T20:30:41.074Z,2.97
2023-05-07T20:33:16.921Z,3.10
2023-05-07T20:35:49.856Z,3.60
2023-05-07T20:38:25.064Z,3.27
2023-05-07T20:40:59.269Z,3.30
2023-05-07T20:43:34.761Z,3.10
2023-05-07T20:46:09.358Z,3.30
2023-05-07T20:48:42.389Z,3.10
2023-05-07T20:51:15.936Z,3.97
2023-05-07T20:53:48.767Z,3.27
2023-05-07T20:56:22.924Z,3.90
2023-05-07T20:58:57.797Z,4.00
2023-05-07T21:01:32.930Z,4.10
2023-05-07T21:04:05.889Z,3.77
2023-05-07T21:06:38.859Z,3.60
2023-05-07T21:09:11.734Z,4.13
2023-05-07T21:11:45.911Z,3.93
2023-05-07T21:14:18.830Z,3.87
2023-05-07T21:16:51.706Z,3.80
2023-05-07T21:19:24.500Z,4.23
2023-05-07T21:21:58.254Z,4.00
2023-05-07T21:24:32.116Z,4.10
2023-05-07T21:27:06.386Z,4.70
2023-05-07T21:29:42.180Z,4.20
2023-05-07T21:32:14.949Z,4.77
2023-05-07T21:34:47.720Z,4.20
2023-05-07T21:37:20.559Z,4.10
2023-05-07T21:39:53.346Z,4.20
2023-05-07T21:42:28.086Z,4.37
2023-05-07T21:45:01.128Z,4.07
2023-05-07T21:47:36.859Z,5.00
2023-05-07T21:50:10.117Z,4.83
2023-05-07T21:52:42.947Z,5.40
2023-05-07T21:55:15.828Z,5.00
2023-05-07T21:58:01.100Z,4.83
2023-05-07T22:00:37.571Z,5.00
2023-05-07T22:03:13.210Z,5.60
2023-05-07T22:05:47.205Z,5.27
2023-05-07T22:08:22.748Z,5.10
2023-05-07T22:10:55.638Z,4.97
2023-05-07T22:13:29.816Z,5.20
2023-05-07T22:16:05.652Z,4.90
2023-05-07T22:18:38.614Z,5.03
2023-05-07T22:21:13.686Z,5.40
2023-05-07T22:23:46.549Z,5.00
2023-05-07T22:26:22.144Z,5.23
2023-05-07T22:28:56.583Z,5.20
2023-05-07T22:31:29.435Z,4.80
2023-05-07T22:34:03.791Z,4.87
2023-05-07T22:36:36.681Z,5.43
2023-05-07T22:39:09.930Z,4.70
2023-05-07T22:41:42.682Z,5.03
2023-05-07T22:44:16.879Z,5.00
2023-05-07T22:46:49.848Z,5.10
2023-05-07T22:49:22.654Z,5.53
2023-05-07T22:51:55.441Z,5.07
2023-05-07T22:54:28.174Z,4.83
2023-05-07T22:57:01.608Z,4.53
2023-05-07T22:59:36.320Z,4.40
2023-05-07T23:02:09.031Z,5.17
2023-05-07T23:04:41.983Z,4.87
2023-05-07T23:07:14.899Z,4.87
2023-05-07T23:09:47.791Z,5.20
2023-05-07T23:12:21.346Z,4.67
2023-05-07T23:14:56.832Z,4.60
2023-05-07T23:17:34.444Z,5.17
2023-05-07T23:20:08.159Z,5.47
2023-05-07T23:22:41.315Z,4.50
2023-05-07T23:25:14.004Z,5.07
2023-05-07T23:27:49.888Z,5.20
2023-05-07T23:30:24.373Z,4.70
2023-05-07T23:32:57.335Z,5.10
2023-05-07T23:35:29.990Z,4.87
2023-05-07T23:38:05.563Z,4.50
2023-05-07T23:40:38.396Z,5.20
2023-05-07T23:43:14.099Z,4.63
2023-05-07T23:45:48.234Z,5.33
2023-05-07T23:48:20.999Z,5.10
2023-05-07T23:50:54.620Z,5.17
2023-05-07T23:53:27.533Z,5.50
2023-05-07T23:56:00.420Z,5.23
2023-05-07T23:58:33.274Z,5.77
